Time,TemperatureF,DewpointF,PressureIn,WindDirection,WindDirectionDegrees,WindSpeedMPH,WindSpeedGustMPH,Humidity,HourlyPrecipIn,Conditions,Clouds,dailyrainin,SoftwareType,DateUTC
2013-01-03 12:23:00,80.1,71.8,31.03,SSE,162,3.0,4.0,76,0.00,,,0.00,Wunderground v.1.15,2013-01-03 17:23:00,
2013-01-03 12:25:00,80.2,71.6,31.03,ESE,105,3.0,4.0,75,0.00,,,0.00,Wunderground v.1.15,2013-01-03 17:25:00,
2013-01-03 12:31:00,80.2,71.6,31.03,ESE,117,3.0,4.0,75,0.00,,,0.00,Wunderground v.1.15,2013-01-03 17:31:00,
2013-01-03 12:32:00,80.3,71.6,31.03,ESE,120,3.0,5.0,75,0.00,,,0.00,Wunderground v.1.15,2013-01-03 17:32:00,
2013-01-03 12:37:00,80.3,72.0,31.02,East,101,3.0,5.0,76,0.00,,,0.00,Wunderground v.1.15,2013-01-03 17:37:00,
2013-01-03 12:43:00,80.0,71.4,31.02,SSE,162,3.0,5.0,75,0.00,,,0.00,Wunderground v.1.15,2013-01-03 17:43:00,
2013-01-03 12:49:00,80.3,71.3,31.02,SE,127,3.0,5.0,74,0.00,,,0.00,Wunderground v.1.15,2013-01-03 17:49:00,
2013-01-03 12:55:00,80.1,71.5,31.01,SSW,198,3.0,6.0,75,0.00,,,0.00,Wunderground v.1.15,2013-01-03 17:55:00,
2013-01-03 13:00:00,80.6,71.9,31.01,SE,125,3.0,3.0,75,0.00,,,0.00,Wunderground v.1.15,2013-01-03 18:00:00,
2013-01-03 13:06:00,80.6,71.9,31.01,SE,136,3.0,5.0,75,0.00,,,0.00,Wunderground v.1.15,2013-01-03 18:06:00,
2013-01-03 13:12:00,80.7,72.0,31.01,ESE,112,3.0,4.0,75,0.00,,,0.00,Wunderground v.1.15,2013-01-03 18:12:00,
2013-01-03 13:18:00,80.3,71.3,31.00,SE,141,3.0,4.0,74,0.00,,,0.00,Wunderground v.1.15,2013-01-03 18:18:00,
2013-01-03 13:23:00,80.1,71.5,31.00,SSW,197,4.0,4.0,75,0.00,,,0.00,Wunderground v.1.15,2013-01-03 18:23:00,
2013-01-03 13:29:00,80.0,71.8,31.00,South,179,3.0,5.0,76,0.00,,,0.00,Wunderground v.1.15,2013-01-03 18:29:00,
2013-01-03 13:34:00,80.1,71.8,31.00,SSE,167,3.0,5.0,76,0.00,,,0.00,Wunderground v.1.15,2013-01-03 18:34:00,
2013-01-03 13:40:00,80.3,72.0,31.00,ESE,103,3.0,4.0,76,0.00,,,0.00,Wunderground v.1.15,2013-01-03 18:40:00,
2013-01-03 13:46:00,80.2,71.9,31.00,SE,143,3.0,4.0,76,0.00,,,0.00,Wunderground v.1.15,2013-01-03 18:46:00,
2013-01-03 13:51:00,80.4,72.1,30.99,South,173,2.0,4.0,76,0.00,,,0.00,Wunderground v.1.15,2013-01-03 18:51:00,
2013-01-03 13:57:00,80.7,72.0,30.99,South,174,3.0,5.0,75,0.00,,,0.00,Wunderground v.1.15,2013-01-03 18:57:00,
2013-01-03 14:02:00,81.0,72.3,30.99,ENE,65,2.0,4.0,75,0.00,,,0.00,Wunderground v.1.15,2013-01-03 19:02:00,
2013-01-03 14:08:00,80.8,72.5,30.99,ESE,108,3.0,4.0,76,0.00,,,0.00,Wunderground v.1.15,2013-01-03 19:08:00,
2013-01-03 14:14:00,80.5,72.2,30.99,East,86,3.0,5.0,76,0.00,,,0.00,Wunderground v.1.15,2013-01-03 19:14:00,
2013-01-03 14:59:00,79.0,71.9,31.00,ESE,115,3.0,7.0,79,0.00,,,0.00,Wunderground v.1.15,2013-01-03 19:59:00,
2013-01-03 15:05:00,78.7,72.4,31.00,ENE,78,3.0,4.0,81,0.00,,,0.00,Wunderground v.1.15,2013-01-03 20:05:00,
2013-01-03 15:11:00,78.5,72.2,31.00,SE,128,2.0,4.0,81,0.00,,,0.00,Wunderground v.1.15,2013-01-03 20:11:00,
2013-01-03 15:16:00,78.8,72.5,31.00,East,88,2.0,5.0,81,0.00,,,0.00,Wunderground v.1.15,2013-01-03 20:16:00,
2013-01-03 15:22:00,79.0,72.3,31.00,SE,143,2.0,4.0,80,0.00,,,0.00,Wunderground v.1.15,2013-01-03 20:22:00,
2013-01-03 15:28:00,78.7,72.0,31.00,SE,146,3.0,4.0,80,0.00,,,0.00,Wunderground v.1.15,2013-01-03 20:28:00,
2013-01-03 20:47:00,74.5,71.7,31.08,East,101,2.0,4.0,91,0.00,,,0.00,Wunderground v.1.15,2013-01-04 01:47:00,
2013-01-03 20:53:00,74.5,71.7,31.08,East,99,2.0,4.0,91,0.00,,,0.00,Wunderground v.1.15,2013-01-04 01:53:00,
2013-01-03 20:59:00,74.4,71.6,31.08,East,95,2.0,4.0,91,0.00,,,0.00,Wunderground v.1.15,2013-01-04 01:59:00,
2013-01-03 21:04:00,74.4,71.6,31.08,ESE,108,2.0,4.0,91,0.00,,,0.00,Wunderground v.1.15,2013-01-04 02:04:00,
2013-01-03 21:10:00,74.4,71.6,31.08,East,96,2.0,4.0,91,0.00,,,0.00,Wunderground v.1.15,2013-01-04 02:10:00,
2013-01-03 21:16:00,74.4,71.6,31.09,SE,131,2.0,4.0,91,0.00,,,0.00,Wunderground v.1.15,2013-01-04 02:16:00,
2013-01-03 21:22:00,74.4,71.9,31.09,SE,126,2.0,4.0,92,0.00,,,0.00,Wunderground v.1.15,2013-01-04 02:22:00,
2013-01-03 21:27:00,74.4,71.9,31.09,SE,129,2.0,4.0,92,0.00,,,0.00,Wunderground v.1.15,2013-01-04 02:27:00,
2013-01-03 21:32:00,74.4,71.9,31.09,ESE,120,2.0,4.0,92,0.00,,,0.00,Wunderground v.1.15,2013-01-04 02:32:00,
2013-01-03 21:38:00,74.4,71.6,31.09,ESE,104,2.0,4.0,91,0.00,,,0.00,Wunderground v.1.15,2013-01-04 02:38:00,
2013-01-03 21:43:00,74.4,71.6,31.09,East,100,2.0,4.0,91,0.00,,,0.00,Wunderground v.1.15,2013-01-04 02:43:00,
2013-01-03 21:48:00,74.4,71.6,31.09,ESE,121,2.0,4.0,91,0.00,,,0.00,Wunderground v.1.15,2013-01-04 02:48:00,
2013-01-03 21:53:00,74.4,71.9,31.09,ESE,109,1.0,4.0,92,0.00,,,0.00,Wunderground v.1.15,2013-01-04 02:53:00,
2013-01-03 21:59:00,74.4,71.9,31.09,ESE,117,1.0,4.0,92,0.00,,,0.00,Wunderground v.1.15,2013-01-04 02:59:00,
2013-01-03 22:05:00,74.4,71.9,31.09,East,92,2.0,4.0,92,0.00,,,0.00,Wunderground v.1.15,2013-01-04 03:05:00,
2013-01-03 22:10:00,74.4,71.9,31.09,East,98,2.0,2.0,92,0.00,,,0.00,Wunderground v.1.15,2013-01-04 03:10:00,
2013-01-03 22:16:00,74.4,71.9,31.10,ESE,104,1.0,4.0,92,0.00,,,0.00,Wunderground v.1.15,2013-01-04 03:16:00,
2013-01-03 22:22:00,74.4,71.9,31.10,ESE,103,2.0,4.0,92,0.00,,,0.00,Wunderground v.1.15,2013-01-04 03:22:00,
2013-01-03 22:27:00,74.4,71.9,31.10,East,94,2.0,4.0,92,0.00,,,0.00,Wunderground v.1.15,2013-01-04 03:27:00,
2013-01-03 22:33:00,74.4,71.9,31.10,ENE,77,1.0,4.0,92,0.00,,,0.00,Wunderground v.1.15,2013-01-04 03:33:00,
2013-01-03 22:39:00,74.4,71.9,31.09,ESE,103,1.0,4.0,92,0.00,,,0.00,Wunderground v.1.15,2013-01-04 03:39:00,
2013-01-03 22:45:00,74.4,72.2,31.09,East,90,1.0,4.0,93,0.00,,,0.00,Wunderground v.1.15,2013-01-04 03:45:00,
2013-01-03 22:50:00,74.4,72.2,31.09,East,96,2.0,2.0,93,0.00,,,0.00,Wunderground v.1.15,2013-01-04 03:50:00,
2013-01-03 22:55:00,74.4,72.2,31.09,East,81,2.0,4.0,93,0.00,,,0.00,Wunderground v.1.15,2013-01-04 03:55:00,
2013-01-03 23:01:00,74.3,72.1,31.09,East,82,2.0,4.0,93,0.00,,,0.00,Wunderground v.1.15,2013-01-04 04:01:00,
2013-01-03 23:06:00,74.4,72.2,31.09,ENE,67,2.0,4.0,93,0.00,,,0.00,Wunderground v.1.15,2013-01-04 04:06:00,
2013-01-03 23:12:00,74.3,72.1,31.09,East,84,2.0,4.0,93,0.00,,,0.00,Wunderground v.1.15,2013-01-04 04:12:00,
2013-01-03 23:18:00,74.3,72.1,31.09,ESE,104,2.0,4.0,93,0.00,,,0.00,Wunderground v.1.15,2013-01-04 04:18:00,
2013-01-03 23:23:00,74.3,72.1,31.09,East,98,2.0,4.0,93,0.00,,,0.00,Wunderground v.1.15,2013-01-04 04:23:00,
2013-01-03 23:29:00,74.3,71.8,31.09,East,100,2.0,4.0,92,0.00,,,0.00,Wunderground v.1.15,2013-01-04 04:29:00,
2013-01-03 23:35:00,74.3,71.8,31.09,East,85,2.0,4.0,92,0.00,,,0.00,Wunderground v.1.15,2013-01-04 04:35:00,
2013-01-03 23:41:00,74.2,72.0,31.09,ESE,102,2.0,4.0,93,0.00,,,0.00,Wunderground v.1.15,2013-01-04 04:41:00,
2013-01-03 23:46:00,74.2,72.0,31.09,East,98,1.0,4.0,93,0.00,,,0.00,Wunderground v.1.15,2013-01-04 04:46:00,
2013-01-03 23:52:00,74.2,71.7,31.09,East,96,2.0,4.0,92,0.00,,,0.00,Wunderground v.1.15,2013-01-04 04:52:00,
2013-01-03 23:57:00,74.1,71.6,31.09,East,99,2.0,4.0,92,0.00,,,0.00,Wunderground v.1.15,2013-01-04 04:57:00,